Main page
METAR-TAF:

METAR-TAF

Airports :

George Best Belfast City Airport

Belfast City, Northern Ireland

latitude: 54-36N, longitude: 005-53W, elevation: 5 m

Current weather observation

The report was made 39 minutes ago, at 18:50 UTC
Wind 2 kt from variable directions
Temperature 14°C
Humidity 77%
Pressure 1015 hPa
Visibility 10 km or more

METAR: EGAC 211850Z AUTO VRB02KT 9999 OVC030/// 14/10 Q1015

Time: 20:29 (19:29 UTC)

Forecast

The report was made 2 hours and 29 minutes ago, at 17:00 UTC
Forecast valid from 21 at 18 UTC to 21 at 21 UTC
Wind 7 kt from the West/Southwest
Visibility 10 km or more
Broken clouds at a height of 2500 ft
Probability 30% :
Temporary
from 21 at 20 UTC to 21 at 21 UTC
Broken clouds at a height of 1400 ft

TAF: EGAC 211700Z 2118/2121 25007KT 9999 BKN025 PROB30 TEMPO 2120/2121 BKN014

Weather observations and forecasts of more than 4000 airports (METAR and TAF reports).

The available stations are represented by yellow and red dots on the map.

Hover mouse over dot to see the name of the station.

Then click to see weather observations and forecasts.

To change the map : click on the green buttons with a black cross to zoom in, on the green button with a dash to zoom out, or on the green arrows for adjacent maps.


METAR-TAF: